sensor_id;sensor_type;location;lat;lon;timestamp;P1;durP1;ratioP1;P2;durP2;ratioP2
77298;SDS011;66361;52.034;20.656;2023-01-25T00:01:14;36.80;;;17.42;;
77298;SDS011;66361;52.034;20.656;2023-01-25T00:05:17;39.13;;;19.70;;
77298;SDS011;66361;52.034;20.656;2023-01-25T00:09:22;47.17;;;20.15;;
77298;SDS011;66361;52.034;20.656;2023-01-25T00:13:29;44.70;;;21.02;;
77298;SDS011;66361;52.034;20.656;2023-01-25T00:17:32;41.35;;;19.83;;
77298;SDS011;66361;52.034;20.656;2023-01-25T00:21:35;45.40;;;20.52;;
77298;SDS011;66361;52.034;20.656;2023-01-25T00:25:39;34.40;;;17.45;;
77298;SDS011;66361;52.034;20.656;2023-01-25T00:29:44;39.33;;;18.73;;
77298;SDS011;66361;52.034;20.656;2023-01-25T00:33:48;42.90;;;19.48;;
77298;SDS011;66361;52.034;20.656;2023-01-25T00:37:56;40.63;;;18.52;;
77298;SDS011;66361;52.034;20.656;2023-01-25T00:42:03;33.20;;;15.75;;
77298;SDS011;66361;52.034;20.656;2023-01-25T00:46:08;34.05;;;17.52;;
77298;SDS011;66361;52.034;20.656;2023-01-25T00:50:17;31.80;;;15.88;;
77298;SDS011;66361;52.034;20.656;2023-01-25T00:54:21;33.75;;;16.90;;
77298;SDS011;66361;52.034;20.656;2023-01-25T00:58:24;28.75;;;14.40;;
77298;SDS011;66361;52.034;20.656;2023-01-25T01:02:30;29.80;;;16.65;;
77298;SDS011;66361;52.034;20.656;2023-01-25T01:06:33;31.95;;;15.45;;
77298;SDS011;66361;52.034;20.656;2023-01-25T01:14:39;26.80;;;13.65;;
77298;SDS011;66361;52.034;20.656;2023-01-25T01:18:44;32.33;;;16.50;;
77298;SDS011;66361;52.034;20.656;2023-01-25T01:22:50;27.77;;;13.90;;
77298;SDS011;66361;52.034;20.656;2023-01-25T01:26:55;27.52;;;13.93;;
77298;SDS011;66361;52.034;20.656;2023-01-25T01:30:59;28.02;;;13.77;;
77298;SDS011;66361;52.034;20.656;2023-01-25T01:35:04;19.92;;;9.02;;
77298;SDS011;66361;52.034;20.656;2023-01-25T01:39:09;22.90;;;10.65;;
77298;SDS011;66361;52.034;20.656;2023-01-25T01:43:17;24.80;;;13.77;;
77298;SDS011;66361;52.034;20.656;2023-01-25T01:47:25;24.23;;;12.95;;
77298;SDS011;66361;52.034;20.656;2023-01-25T01:51:38;25.23;;;13.10;;
77298;SDS011;66361;52.034;20.656;2023-01-25T01:55:44;25.13;;;13.07;;
77298;SDS011;66361;52.034;20.656;2023-01-25T01:59:49;27.05;;;13.70;;
77298;SDS011;66361;52.034;20.656;2023-01-25T02:03:55;21.42;;;12.00;;
77298;SDS011;66361;52.034;20.656;2023-01-25T02:08:00;27.77;;;12.38;;
77298;SDS011;66361;52.034;20.656;2023-01-25T02:12:06;26.88;;;12.20;;
77298;SDS011;66361;52.034;20.656;2023-01-25T02:16:13;25.00;;;12.02;;
77298;SDS011;66361;52.034;20.656;2023-01-25T02:20:20;24.77;;;13.35;;
77298;SDS011;66361;52.034;20.656;2023-01-25T02:28:36;18.95;;;10.05;;
77298;SDS011;66361;52.034;20.656;2023-01-25T02:32:42;21.52;;;11.15;;
77298;SDS011;66361;52.034;20.656;2023-01-25T02:36:45;22.70;;;11.18;;
77298;SDS011;66361;52.034;20.656;2023-01-25T02:40:50;23.65;;;11.45;;
77298;SDS011;66361;52.034;20.656;2023-01-25T02:44:58;18.65;;;10.23;;
77298;SDS011;66361;52.034;20.656;2023-01-25T02:49:03;19.88;;;11.73;;
77298;SDS011;66361;52.034;20.656;2023-01-25T02:53:07;25.50;;;13.02;;
77298;SDS011;66361;52.034;20.656;2023-01-25T02:57:10;21.42;;;11.68;;
77298;SDS011;66361;52.034;20.656;2023-01-25T03:01:14;19.85;;;10.50;;
77298;SDS011;66361;52.034;20.656;2023-01-25T03:05:17;15.75;;;8.68;;
77298;SDS011;66361;52.034;20.656;2023-01-25T03:09:20;16.45;;;8.85;;
77298;SDS011;66361;52.034;20.656;2023-01-25T03:13:26;13.25;;;7.95;;
77298;SDS011;66361;52.034;20.656;2023-01-25T03:17:31;10.30;;;5.80;;
77298;SDS011;66361;52.034;20.656;2023-01-25T03:21:34;16.60;;;8.60;;
77298;SDS011;66361;52.034;20.656;2023-01-25T03:25:37;14.95;;;8.13;;
77298;SDS011;66361;52.034;20.656;2023-01-25T03:29:40;16.95;;;8.63;;
77298;SDS011;66361;52.034;20.656;2023-01-25T03:33:44;13.25;;;6.88;;
77298;SDS011;66361;52.034;20.656;2023-01-25T03:37:48;12.27;;;7.20;;
77298;SDS011;66361;52.034;20.656;2023-01-25T03:41:52;10.88;;;6.43;;
77298;SDS011;66361;52.034;20.656;2023-01-25T03:45:56;13.70;;;6.90;;
77298;SDS011;66361;52.034;20.656;2023-01-25T03:50:02;9.45;;;5.75;;
77298;SDS011;66361;52.034;20.656;2023-01-25T03:54:05;11.07;;;6.65;;
77298;SDS011;66361;52.034;20.656;2023-01-25T03:58:10;10.35;;;6.05;;
77298;SDS011;66361;52.034;20.656;2023-01-25T04:02:13;7.85;;;5.10;;
77298;SDS011;66361;52.034;20.656;2023-01-25T04:06:18;10.55;;;6.43;;
77298;SDS011;66361;52.034;20.656;2023-01-25T04:10:21;8.25;;;5.45;;
77298;SDS011;66361;52.034;20.656;2023-01-25T04:14:24;12.00;;;7.55;;
77298;SDS011;66361;52.034;20.656;2023-01-25T04:18:45;11.23;;;6.53;;
77298;SDS011;66361;52.034;20.656;2023-01-25T04:22:50;11.88;;;6.90;;
77298;SDS011;66361;52.034;20.656;2023-01-25T04:26:53;11.02;;;6.93;;
77298;SDS011;66361;52.034;20.656;2023-01-25T04:30:56;13.80;;;7.60;;
77298;SDS011;66361;52.034;20.656;2023-01-25T04:39:04;9.27;;;5.93;;
77298;SDS011;66361;52.034;20.656;2023-01-25T04:43:12;10.43;;;6.43;;
77298;SDS011;66361;52.034;20.656;2023-01-25T04:47:16;10.15;;;5.82;;
77298;SDS011;66361;52.034;20.656;2023-01-25T04:51:19;11.75;;;6.68;;
77298;SDS011;66361;52.034;20.656;2023-01-25T04:55:23;10.65;;;6.63;;
77298;SDS011;66361;52.034;20.656;2023-01-25T04:59:28;14.98;;;8.23;;
77298;SDS011;66361;52.034;20.656;2023-01-25T05:03:31;14.60;;;8.63;;
77298;SDS011;66361;52.034;20.656;2023-01-25T05:07:34;11.90;;;6.28;;
77298;SDS011;66361;52.034;20.656;2023-01-25T05:11:39;15.98;;;8.82;;
77298;SDS011;66361;52.034;20.656;2023-01-25T05:15:42;16.70;;;8.40;;
77298;SDS011;66361;52.034;20.656;2023-01-25T05:19:45;13.02;;;8.20;;
77298;SDS011;66361;52.034;20.656;2023-01-25T05:23:48;13.13;;;7.68;;
77298;SDS011;66361;52.034;20.656;2023-01-25T05:27:53;12.95;;;6.75;;
77298;SDS011;66361;52.034;20.656;2023-01-25T05:31:56;19.00;;;9.50;;
77298;SDS011;66361;52.034;20.656;2023-01-25T05:40:03;16.67;;;7.93;;
77298;SDS011;66361;52.034;20.656;2023-01-25T05:44:08;17.40;;;9.65;;
77298;SDS011;66361;52.034;20.656;2023-01-25T05:48:12;12.73;;;7.85;;
77298;SDS011;66361;52.034;20.656;2023-01-25T05:52:15;14.38;;;7.93;;
77298;SDS011;66361;52.034;20.656;2023-01-25T05:56:19;19.45;;;8.90;;
77298;SDS011;66361;52.034;20.656;2023-01-25T06:00:24;15.73;;;8.07;;
77298;SDS011;66361;52.034;20.656;2023-01-25T06:04:27;19.83;;;10.32;;
77298;SDS011;66361;52.034;20.656;2023-01-25T06:08:31;14.88;;;7.60;;
77298;SDS011;66361;52.034;20.656;2023-01-25T06:12:36;19.17;;;11.60;;
77298;SDS011;66361;52.034;20.656;2023-01-25T06:16:41;21.75;;;11.25;;
77298;SDS011;66361;52.034;20.656;2023-01-25T06:20:44;22.13;;;13.55;;
77298;SDS011;66361;52.034;20.656;2023-01-25T06:24:47;21.65;;;9.60;;
77298;SDS011;66361;52.034;20.656;2023-01-25T06:28:51;19.23;;;11.07;;
77298;SDS011;66361;52.034;20.656;2023-01-25T06:32:57;20.52;;;9.95;;
77298;SDS011;66361;52.034;20.656;2023-01-25T06:37:01;19.40;;;12.55;;
77298;SDS011;66361;52.034;20.656;2023-01-25T06:41:05;15.43;;;11.07;;
77298;SDS011;66361;52.034;20.656;2023-01-25T06:45:11;17.92;;;9.60;;
77298;SDS011;66361;52.034;20.656;2023-01-25T06:49:17;29.42;;;18.35;;
77298;SDS011;66361;52.034;20.656;2023-01-25T06:53:20;19.33;;;11.68;;
77298;SDS011;66361;52.034;20.656;2023-01-25T06:57:23;24.70;;;13.05;;
77298;SDS011;66361;52.034;20.656;2023-01-25T07:01:26;22.55;;;11.23;;
77298;SDS011;66361;52.034;20.656;2023-01-25T07:05:32;23.70;;;14.13;;
77298;SDS011;66361;52.034;20.656;2023-01-25T07:09:35;25.40;;;10.52;;
77298;SDS011;66361;52.034;20.656;2023-01-25T07:13:38;23.13;;;10.85;;
77298;SDS011;66361;52.034;20.656;2023-01-25T07:17:42;16.17;;;8.90;;
77298;SDS011;66361;52.034;20.656;2023-01-25T07:21:46;21.38;;;10.40;;
77298;SDS011;66361;52.034;20.656;2023-01-25T07:25:49;25.50;;;11.60;;
77298;SDS011;66361;52.034;20.656;2023-01-25T07:29:52;24.95;;;12.73;;
77298;SDS011;66361;52.034;20.656;2023-01-25T07:33:56;22.45;;;10.73;;
77298;SDS011;66361;52.034;20.656;2023-01-25T07:38:01;24.20;;;14.25;;
77298;SDS011;66361;52.034;20.656;2023-01-25T07:42:04;26.48;;;14.55;;
77298;SDS011;66361;52.034;20.656;2023-01-25T07:46:08;25.88;;;15.32;;
77298;SDS011;66361;52.034;20.656;2023-01-25T07:50:13;20.90;;;10.65;;
77298;SDS011;66361;52.034;20.656;2023-01-25T07:54:18;18.35;;;11.95;;
77298;SDS011;66361;52.034;20.656;2023-01-25T07:58:29;33.25;;;17.48;;
77298;SDS011;66361;52.034;20.656;2023-01-25T08:02:32;21.05;;;11.00;;
77298;SDS011;66361;52.034;20.656;2023-01-25T08:06:36;20.40;;;10.77;;
77298;SDS011;66361;52.034;20.656;2023-01-25T08:10:41;26.25;;;11.95;;
77298;SDS011;66361;52.034;20.656;2023-01-25T08:14:44;20.20;;;11.70;;
77298;SDS011;66361;52.034;20.656;2023-01-25T08:18:50;24.17;;;11.10;;
77298;SDS011;66361;52.034;20.656;2023-01-25T08:22:55;25.77;;;12.30;;
77298;SDS011;66361;52.034;20.656;2023-01-25T08:27:00;19.35;;;10.43;;
77298;SDS011;66361;52.034;20.656;2023-01-25T08:31:04;11.93;;;7.10;;
77298;SDS011;66361;52.034;20.656;2023-01-25T08:35:08;19.60;;;9.18;;
77298;SDS011;66361;52.034;20.656;2023-01-25T08:39:13;16.38;;;9.52;;
77298;SDS011;66361;52.034;20.656;2023-01-25T08:43:19;20.50;;;10.02;;
77298;SDS011;66361;52.034;20.656;2023-01-25T08:47:22;20.88;;;10.68;;
77298;SDS011;66361;52.034;20.656;2023-01-25T08:51:25;22.55;;;11.43;;
77298;SDS011;66361;52.034;20.656;2023-01-25T08:55:29;23.95;;;12.75;;
77298;SDS011;66361;52.034;20.656;2023-01-25T08:59:34;20.90;;;9.10;;
77298;SDS011;66361;52.034;20.656;2023-01-25T09:03:38;20.95;;;11.90;;
77298;SDS011;66361;52.034;20.656;2023-01-25T09:07:42;21.95;;;11.00;;
77298;SDS011;66361;52.034;20.656;2023-01-25T09:11:45;23.83;;;11.60;;
77298;SDS011;66361;52.034;20.656;2023-01-25T09:15:57;40.72;;;9.35;;
77298;SDS011;66361;52.034;20.656;2023-01-25T09:20:00;22.23;;;10.77;;
77298;SDS011;66361;52.034;20.656;2023-01-25T09:24:03;20.02;;;11.43;;
77298;SDS011;66361;52.034;20.656;2023-01-25T09:28:08;23.98;;;11.23;;
77298;SDS011;66361;52.034;20.656;2023-01-25T09:32:14;29.25;;;11.38;;
77298;SDS011;66361;52.034;20.656;2023-01-25T09:36:17;26.50;;;12.48;;
77298;SDS011;66361;52.034;20.656;2023-01-25T09:40:21;23.73;;;16.02;;
77298;SDS011;66361;52.034;20.656;2023-01-25T09:44:34;26.65;;;13.82;;
77298;SDS011;66361;52.034;20.656;2023-01-25T09:48:53;28.08;;;14.43;;
77298;SDS011;66361;52.034;20.656;2023-01-25T09:53:18;28.33;;;13.57;;
77298;SDS011;66361;52.034;20.656;2023-01-25T09:57:25;24.38;;;12.32;;
77298;SDS011;66361;52.034;20.656;2023-01-25T10:01:34;26.65;;;13.80;;
77298;SDS011;66361;52.034;20.656;2023-01-25T10:05:47;22.20;;;10.75;;
77298;SDS011;66361;52.034;20.656;2023-01-25T10:09:54;24.08;;;11.95;;
77298;SDS011;66361;52.034;20.656;2023-01-25T10:14:08;29.17;;;15.35;;
77298;SDS011;66361;52.034;20.656;2023-01-25T10:18:17;36.70;;;14.90;;
77298;SDS011;66361;52.034;20.656;2023-01-25T10:22:28;29.60;;;14.48;;
77298;SDS011;66361;52.034;20.656;2023-01-25T10:26:37;25.15;;;12.43;;
77298;SDS011;66361;52.034;20.656;2023-01-25T10:30:46;27.00;;;14.30;;
77298;SDS011;66361;52.034;20.656;2023-01-25T10:34:55;14.77;;;9.30;;
77298;SDS011;66361;52.034;20.656;2023-01-25T10:39:03;23.77;;;12.50;;
77298;SDS011;66361;52.034;20.656;2023-01-25T10:43:11;27.83;;;13.70;;
77298;SDS011;66361;52.034;20.656;2023-01-25T10:47:22;26.17;;;12.55;;
77298;SDS011;66361;52.034;20.656;2023-01-25T10:51:29;30.05;;;14.25;;
77298;SDS011;66361;52.034;20.656;2023-01-25T10:55:38;25.77;;;13.85;;
77298;SDS011;66361;52.034;20.656;2023-01-25T10:59:57;32.78;;;12.95;;
77298;SDS011;66361;52.034;20.656;2023-01-25T11:04:20;29.10;;;13.73;;
77298;SDS011;66361;52.034;20.656;2023-01-25T11:08:32;26.65;;;13.50;;
77298;SDS011;66361;52.034;20.656;2023-01-25T11:12:38;24.88;;;12.52;;
77298;SDS011;66361;52.034;20.656;2023-01-25T11:16:43;23.98;;;11.07;;
77298;SDS011;66361;52.034;20.656;2023-01-25T11:20:58;28.08;;;13.27;;
77298;SDS011;66361;52.034;20.656;2023-01-25T11:29:29;26.13;;;12.65;;
77298;SDS011;66361;52.034;20.656;2023-01-25T11:33:32;27.70;;;11.63;;
77298;SDS011;66361;52.034;20.656;2023-01-25T11:37:39;24.38;;;11.93;;
77298;SDS011;66361;52.034;20.656;2023-01-25T11:41:58;26.85;;;12.23;;
77298;SDS011;66361;52.034;20.656;2023-01-25T11:46:27;25.08;;;12.35;;
77298;SDS011;66361;52.034;20.656;2023-01-25T11:50:40;21.05;;;11.70;;
77298;SDS011;66361;52.034;20.656;2023-01-25T11:54:50;27.75;;;13.18;;
77298;SDS011;66361;52.034;20.656;2023-01-25T11:59:08;28.48;;;13.68;;
77298;SDS011;66361;52.034;20.656;2023-01-25T12:03:35;28.08;;;12.80;;
77298;SDS011;66361;52.034;20.656;2023-01-25T12:08:00;28.77;;;13.00;;
77298;SDS011;66361;52.034;20.656;2023-01-25T12:12:18;26.75;;;12.35;;
77298;SDS011;66361;52.034;20.656;2023-01-25T12:16:30;33.10;;;15.57;;
77298;SDS011;66361;52.034;20.656;2023-01-25T12:20:53;33.20;;;15.80;;
77298;SDS011;66361;52.034;20.656;2023-01-25T12:25:13;31.35;;;14.50;;
77298;SDS011;66361;52.034;20.656;2023-01-25T12:29:28;25.30;;;12.48;;
77298;SDS011;66361;52.034;20.656;2023-01-25T12:33:37;17.50;;;10.90;;
77298;SDS011;66361;52.034;20.656;2023-01-25T12:37:46;29.83;;;15.65;;
77298;SDS011;66361;52.034;20.656;2023-01-25T12:41:52;30.42;;;15.30;;
77298;SDS011;66361;52.034;20.656;2023-01-25T12:46:00;26.83;;;12.70;;
77298;SDS011;66361;52.034;20.656;2023-01-25T12:50:18;28.52;;;13.77;;
77298;SDS011;66361;52.034;20.656;2023-01-25T12:54:28;26.40;;;13.57;;
77298;SDS011;66361;52.034;20.656;2023-01-25T12:58:37;31.08;;;14.85;;
77298;SDS011;66361;52.034;20.656;2023-01-25T13:02:50;26.55;;;14.52;;
77298;SDS011;66361;52.034;20.656;2023-01-25T13:07:09;33.47;;;13.98;;
77298;SDS011;66361;52.034;20.656;2023-01-25T13:11:21;25.25;;;12.27;;
77298;SDS011;66361;52.034;20.656;2023-01-25T13:15:34;21.40;;;11.52;;
77298;SDS011;66361;52.034;20.656;2023-01-25T13:19:39;27.58;;;16.10;;
77298;SDS011;66361;52.034;20.656;2023-01-25T13:23:46;22.77;;;11.95;;
77298;SDS011;66361;52.034;20.656;2023-01-25T13:32:53;31.83;;;14.38;;
77298;SDS011;66361;52.034;20.656;2023-01-25T13:36:58;32.53;;;15.73;;
77298;SDS011;66361;52.034;20.656;2023-01-25T13:41:08;24.67;;;13.77;;
77298;SDS011;66361;52.034;20.656;2023-01-25T13:45:16;25.58;;;12.15;;
77298;SDS011;66361;52.034;20.656;2023-01-25T13:49:23;26.05;;;13.18;;
77298;SDS011;66361;52.034;20.656;2023-01-25T13:53:33;26.98;;;13.95;;
77298;SDS011;66361;52.034;20.656;2023-01-25T13:57:39;25.85;;;13.38;;
77298;SDS011;66361;52.034;20.656;2023-01-25T14:01:43;27.77;;;14.75;;
77298;SDS011;66361;52.034;20.656;2023-01-25T14:05:49;27.15;;;13.52;;
77298;SDS011;66361;52.034;20.656;2023-01-25T14:09:53;26.90;;;12.95;;
77298;SDS011;66361;52.034;20.656;2023-01-25T14:13:59;21.83;;;12.43;;
77298;SDS011;66361;52.034;20.656;2023-01-25T14:18:13;22.08;;;12.18;;
77298;SDS011;66361;52.034;20.656;2023-01-25T14:22:20;26.10;;;11.65;;
77298;SDS011;66361;52.034;20.656;2023-01-25T14:26:25;23.58;;;13.27;;
77298;SDS011;66361;52.034;20.656;2023-01-25T14:30:30;26.95;;;13.35;;
77298;SDS011;66361;52.034;20.656;2023-01-25T14:34:36;23.58;;;13.07;;
77298;SDS011;66361;52.034;20.656;2023-01-25T14:38:39;23.35;;;13.23;;
77298;SDS011;66361;52.034;20.656;2023-01-25T14:42:43;24.20;;;11.93;;
77298;SDS011;66361;52.034;20.656;2023-01-25T14:46:46;24.35;;;11.77;;
77298;SDS011;66361;52.034;20.656;2023-01-25T14:50:50;24.83;;;12.68;;
77298;SDS011;66361;52.034;20.656;2023-01-25T14:55:06;32.53;;;15.55;;
77298;SDS011;66361;52.034;20.656;2023-01-25T14:59:19;26.02;;;13.80;;
77298;SDS011;66361;52.034;20.656;2023-01-25T15:03:26;25.13;;;12.93;;
77298;SDS011;66361;52.034;20.656;2023-01-25T15:07:33;30.45;;;14.55;;
77298;SDS011;66361;52.034;20.656;2023-01-25T15:11:42;27.33;;;13.48;;
77298;SDS011;66361;52.034;20.656;2023-01-25T15:15:51;29.52;;;14.75;;
77298;SDS011;66361;52.034;20.656;2023-01-25T15:19:55;32.10;;;14.93;;
77298;SDS011;66361;52.034;20.656;2023-01-25T15:24:00;21.92;;;12.73;;
77298;SDS011;66361;52.034;20.656;2023-01-25T15:28:09;25.15;;;12.07;;
77298;SDS011;66361;52.034;20.656;2023-01-25T15:32:16;32.42;;;15.70;;
77298;SDS011;66361;52.034;20.656;2023-01-25T15:36:22;27.00;;;13.77;;
77298;SDS011;66361;52.034;20.656;2023-01-25T15:40:26;28.42;;;13.25;;
77298;SDS011;66361;52.034;20.656;2023-01-25T15:44:30;25.20;;;14.20;;
77298;SDS011;66361;52.034;20.656;2023-01-25T15:48:34;30.27;;;14.68;;
77298;SDS011;66361;52.034;20.656;2023-01-25T15:52:39;27.67;;;14.55;;
77298;SDS011;66361;52.034;20.656;2023-01-25T15:56:43;30.27;;;14.10;;
77298;SDS011;66361;52.034;20.656;2023-01-25T16:00:51;28.73;;;13.45;;
77298;SDS011;66361;52.034;20.656;2023-01-25T16:04:54;29.83;;;13.45;;
77298;SDS011;66361;52.034;20.656;2023-01-25T16:08:58;28.92;;;13.38;;
77298;SDS011;66361;52.034;20.656;2023-01-25T16:13:02;32.03;;;15.00;;
77298;SDS011;66361;52.034;20.656;2023-01-25T16:17:10;28.58;;;13.38;;
77298;SDS011;66361;52.034;20.656;2023-01-25T16:21:18;23.70;;;12.45;;
77298;SDS011;66361;52.034;20.656;2023-01-25T16:25:21;29.85;;;15.70;;
77298;SDS011;66361;52.034;20.656;2023-01-25T16:29:26;28.40;;;14.55;;
77298;SDS011;66361;52.034;20.656;2023-01-25T16:33:30;28.48;;;13.10;;
77298;SDS011;66361;52.034;20.656;2023-01-25T16:37:33;27.60;;;14.18;;
77298;SDS011;66361;52.034;20.656;2023-01-25T16:41:36;30.95;;;15.73;;
77298;SDS011;66361;52.034;20.656;2023-01-25T16:45:41;26.05;;;13.27;;
77298;SDS011;66361;52.034;20.656;2023-01-25T16:49:44;26.58;;;14.50;;
77298;SDS011;66361;52.034;20.656;2023-01-25T16:53:47;27.60;;;14.10;;
77298;SDS011;66361;52.034;20.656;2023-01-25T16:57:50;28.27;;;13.50;;
77298;SDS011;66361;52.034;20.656;2023-01-25T17:01:55;24.45;;;13.68;;
77298;SDS011;66361;52.034;20.656;2023-01-25T17:05:59;26.42;;;12.57;;
77298;SDS011;66361;52.034;20.656;2023-01-25T17:10:01;29.42;;;15.23;;
77298;SDS011;66361;52.034;20.656;2023-01-25T17:14:07;30.23;;;14.77;;
77298;SDS011;66361;52.034;20.656;2023-01-25T17:18:16;33.75;;;14.85;;
77298;SDS011;66361;52.034;20.656;2023-01-25T17:22:19;28.73;;;14.15;;
77298;SDS011;66361;52.034;20.656;2023-01-25T17:26:23;33.05;;;13.60;;
77298;SDS011;66361;52.034;20.656;2023-01-25T17:30:26;32.00;;;14.23;;
77298;SDS011;66361;52.034;20.656;2023-01-25T17:34:31;26.20;;;13.82;;
77298;SDS011;66361;52.034;20.656;2023-01-25T17:38:34;27.95;;;13.55;;
77298;SDS011;66361;52.034;20.656;2023-01-25T17:42:39;29.60;;;14.32;;
77298;SDS011;66361;52.034;20.656;2023-01-25T17:46:42;30.65;;;14.32;;
77298;SDS011;66361;52.034;20.656;2023-01-25T17:50:46;27.70;;;13.68;;
77298;SDS011;66361;52.034;20.656;2023-01-25T17:54:50;29.52;;;14.63;;
77298;SDS011;66361;52.034;20.656;2023-01-25T17:58:53;27.55;;;13.02;;
77298;SDS011;66361;52.034;20.656;2023-01-25T18:02:56;33.58;;;15.20;;
77298;SDS011;66361;52.034;20.656;2023-01-25T18:07:01;34.60;;;15.20;;
77298;SDS011;66361;52.034;20.656;2023-01-25T18:11:04;32.58;;;15.50;;
77298;SDS011;66361;52.034;20.656;2023-01-25T18:15:08;30.83;;;14.63;;
77298;SDS011;66361;52.034;20.656;2023-01-25T18:19:14;31.35;;;15.73;;
77298;SDS011;66361;52.034;20.656;2023-01-25T18:23:18;35.08;;;16.80;;
77298;SDS011;66361;52.034;20.656;2023-01-25T18:27:23;34.40;;;15.85;;
77298;SDS011;66361;52.034;20.656;2023-01-25T18:31:28;28.70;;;14.93;;
77298;SDS011;66361;52.034;20.656;2023-01-25T18:35:31;32.53;;;16.08;;
77298;SDS011;66361;52.034;20.656;2023-01-25T18:39:35;40.03;;;16.75;;
77298;SDS011;66361;52.034;20.656;2023-01-25T18:43:40;34.72;;;18.85;;
77298;SDS011;66361;52.034;20.656;2023-01-25T18:47:45;37.08;;;18.95;;
77298;SDS011;66361;52.034;20.656;2023-01-25T18:51:48;37.72;;;17.05;;
77298;SDS011;66361;52.034;20.656;2023-01-25T18:56:13;35.33;;;16.55;;
77298;SDS011;66361;52.034;20.656;2023-01-25T19:00:17;35.70;;;16.13;;
77298;SDS011;66361;52.034;20.656;2023-01-25T19:04:21;38.83;;;17.85;;
77298;SDS011;66361;52.034;20.656;2023-01-25T19:08:24;31.45;;;14.50;;
77298;SDS011;66361;52.034;20.656;2023-01-25T19:12:30;36.53;;;16.33;;
77298;SDS011;66361;52.034;20.656;2023-01-25T19:16:33;36.55;;;16.27;;
77298;SDS011;66361;52.034;20.656;2023-01-25T19:20:36;36.10;;;17.42;;
77298;SDS011;66361;52.034;20.656;2023-01-25T19:24:40;32.40;;;15.90;;
77298;SDS011;66361;52.034;20.656;2023-01-25T19:28:45;38.42;;;18.40;;
77298;SDS011;66361;52.034;20.656;2023-01-25T19:32:49;38.25;;;16.95;;
77298;SDS011;66361;52.034;20.656;2023-01-25T19:36:53;36.25;;;16.17;;
77298;SDS011;66361;52.034;20.656;2023-01-25T19:41:02;38.63;;;17.33;;
77298;SDS011;66361;52.034;20.656;2023-01-25T19:45:07;40.53;;;17.73;;
77298;SDS011;66361;52.034;20.656;2023-01-25T19:49:11;36.92;;;17.67;;
77298;SDS011;66361;52.034;20.656;2023-01-25T19:57:18;32.03;;;15.20;;
77298;SDS011;66361;52.034;20.656;2023-01-25T20:01:23;37.25;;;16.27;;
77298;SDS011;66361;52.034;20.656;2023-01-25T20:05:29;40.85;;;17.55;;
77298;SDS011;66361;52.034;20.656;2023-01-25T20:09:35;41.17;;;17.45;;
77298;SDS011;66361;52.034;20.656;2023-01-25T20:13:39;46.17;;;19.25;;
77298;SDS011;66361;52.034;20.656;2023-01-25T20:17:44;40.20;;;19.70;;
77298;SDS011;66361;52.034;20.656;2023-01-25T20:21:47;42.47;;;18.25;;
77298;SDS011;66361;52.034;20.656;2023-01-25T20:25:54;38.65;;;17.75;;
77298;SDS011;66361;52.034;20.656;2023-01-25T20:29:58;40.05;;;17.20;;
77298;SDS011;66361;52.034;20.656;2023-01-25T20:34:04;39.58;;;18.10;;
77298;SDS011;66361;52.034;20.656;2023-01-25T20:38:08;40.08;;;19.35;;
77298;SDS011;66361;52.034;20.656;2023-01-25T20:42:11;43.25;;;18.58;;
77298;SDS011;66361;52.034;20.656;2023-01-25T20:46:15;38.75;;;17.77;;
77298;SDS011;66361;52.034;20.656;2023-01-25T20:50:20;39.15;;;17.88;;
77298;SDS011;66361;52.034;20.656;2023-01-25T20:54:23;41.88;;;20.25;;
77298;SDS011;66361;52.034;20.656;2023-01-25T20:58:26;40.10;;;17.65;;
77298;SDS011;66361;52.034;20.656;2023-01-25T21:06:36;39.78;;;19.48;;
77298;SDS011;66361;52.034;20.656;2023-01-25T21:10:39;46.38;;;19.83;;
77298;SDS011;66361;52.034;20.656;2023-01-25T21:15:09;39.75;;;19.40;;
77298;SDS011;66361;52.034;20.656;2023-01-25T21:19:18;44.97;;;18.42;;
77298;SDS011;66361;52.034;20.656;2023-01-25T21:23:23;40.92;;;18.40;;
77298;SDS011;66361;52.034;20.656;2023-01-25T21:27:29;39.13;;;19.10;;
77298;SDS011;66361;52.034;20.656;2023-01-25T21:31:34;44.10;;;19.48;;
77298;SDS011;66361;52.034;20.656;2023-01-25T21:35:43;32.90;;;16.65;;
77298;SDS011;66361;52.034;20.656;2023-01-25T21:39:47;37.03;;;18.23;;
77298;SDS011;66361;52.034;20.656;2023-01-25T21:43:50;35.45;;;18.13;;
77298;SDS011;66361;52.034;20.656;2023-01-25T21:48:12;33.80;;;17.38;;
77298;SDS011;66361;52.034;20.656;2023-01-25T21:52:35;31.52;;;16.92;;
77298;SDS011;66361;52.034;20.656;2023-01-25T21:56:40;29.90;;;16.00;;
77298;SDS011;66361;52.034;20.656;2023-01-25T22:00:43;39.55;;;17.27;;
77298;SDS011;66361;52.034;20.656;2023-01-25T22:04:46;38.05;;;16.70;;
77298;SDS011;66361;52.034;20.656;2023-01-25T22:08:49;33.55;;;16.58;;
77298;SDS011;66361;52.034;20.656;2023-01-25T22:12:53;35.20;;;15.30;;
77298;SDS011;66361;52.034;20.656;2023-01-25T22:16:57;37.53;;;16.42;;
77298;SDS011;66361;52.034;20.656;2023-01-25T22:21:00;39.47;;;17.33;;
77298;SDS011;66361;52.034;20.656;2023-01-25T22:25:06;35.95;;;16.05;;
77298;SDS011;66361;52.034;20.656;2023-01-25T22:33:15;38.92;;;18.30;;
77298;SDS011;66361;52.034;20.656;2023-01-25T22:37:18;31.52;;;15.73;;
77298;SDS011;66361;52.034;20.656;2023-01-25T22:41:23;36.15;;;16.95;;
77298;SDS011;66361;52.034;20.656;2023-01-25T22:45:29;34.88;;;16.85;;
77298;SDS011;66361;52.034;20.656;2023-01-25T22:49:33;37.08;;;18.17;;
77298;SDS011;66361;52.034;20.656;2023-01-25T22:53:36;39.65;;;17.83;;
77298;SDS011;66361;52.034;20.656;2023-01-25T22:57:39;38.78;;;19.83;;
77298;SDS011;66361;52.034;20.656;2023-01-25T23:01:44;34.95;;;16.92;;
77298;SDS011;66361;52.034;20.656;2023-01-25T23:05:47;37.50;;;18.80;;
77298;SDS011;66361;52.034;20.656;2023-01-25T23:09:50;39.15;;;19.17;;
77298;SDS011;66361;52.034;20.656;2023-01-25T23:13:54;40.13;;;19.10;;
77298;SDS011;66361;52.034;20.656;2023-01-25T23:18:15;36.35;;;18.15;;
77298;SDS011;66361;52.034;20.656;2023-01-25T23:22:36;42.80;;;18.85;;
77298;SDS011;66361;52.034;20.656;2023-01-25T23:26:39;36.90;;;16.85;;
77298;SDS011;66361;52.034;20.656;2023-01-25T23:30:46;41.70;;;18.23;;
77298;SDS011;66361;52.034;20.656;2023-01-25T23:34:52;41.28;;;18.38;;
77298;SDS011;66361;52.034;20.656;2023-01-25T23:38:55;38.22;;;17.42;;
77298;SDS011;66361;52.034;20.656;2023-01-25T23:42:59;33.17;;;16.98;;
77298;SDS011;66361;52.034;20.656;2023-01-25T23:47:02;37.58;;;19.20;;
77298;SDS011;66361;52.034;20.656;2023-01-25T23:51:06;38.03;;;17.48;;
77298;SDS011;66361;52.034;20.656;2023-01-25T23:55:11;41.50;;;20.42;;
77298;SDS011;66361;52.034;20.656;2023-01-25T23:59:14;35.75;;;17.52;;
